sensor_id;sensor_type;location;lat;lon;timestamp;pressure;altitude;pressure_sealevel;temperature;humidity
3428;BME280;1727;42.624;23.406;2023-01-29T00:00:20;94960.56;;;1.38;100.00
3428;BME280;1727;42.624;23.406;2023-01-29T00:02:49;94964.66;;;1.24;100.00
3428;BME280;1727;42.624;23.406;2023-01-29T00:05:16;94960.25;;;1.27;100.00
3428;BME280;1727;42.624;23.406;2023-01-29T00:07:43;94962.69;;;1.30;100.00
3428;BME280;1727;42.624;23.406;2023-01-29T00:10:10;94967.56;;;1.36;100.00
3428;BME280;1727;42.624;23.406;2023-01-29T00:12:37;94967.56;;;1.36;100.00
3428;BME280;1727;42.624;23.406;2023-01-29T00:15:05;94973.50;;;1.38;100.00
3428;BME280;1727;42.624;23.406;2023-01-29T00:17:32;94976.84;;;1.40;100.00
3428;BME280;1727;42.624;23.406;2023-01-29T00:20:00;94976.91;;;1.38;100.00
3428;BME280;1727;42.624;23.406;2023-01-29T00:22:29;94975.88;;;1.42;100.00
3428;BME280;1727;42.624;23.406;2023-01-29T00:24:56;94984.75;;;1.37;100.00
3428;BME280;1727;42.624;23.406;2023-01-29T00:27:22;94977.75;;;1.39;100.00
3428;BME280;1727;42.624;23.406;2023-01-29T00:29:49;94986.78;;;1.49;100.00
3428;BME280;1727;42.624;23.406;2023-01-29T00:32:33;94990.53;;;1.42;100.00
3428;BME280;1727;42.624;23.406;2023-01-29T00:35:02;94995.94;;;1.37;100.00
3428;BME280;1727;42.624;23.406;2023-01-29T00:37:29;94989.63;;;1.43;100.00
3428;BME280;1727;42.624;23.406;2023-01-29T00:39:56;94997.47;;;1.41;100.00
3428;BME280;1727;42.624;23.406;2023-01-29T00:42:23;94988.41;;;1.33;100.00
3428;BME280;1727;42.624;23.406;2023-01-29T00:45:09;94979.25;;;1.26;100.00
3428;BME280;1727;42.624;23.406;2023-01-29T00:47:36;94991.91;;;1.32;100.00
3428;BME280;1727;42.624;23.406;2023-01-29T00:50:06;94993.19;;;1.23;100.00
3428;BME280;1727;42.624;23.406;2023-01-29T00:52:34;94990.72;;;1.20;100.00
3428;BME280;1727;42.624;23.406;2023-01-29T00:55:03;94984.59;;;1.22;100.00
3428;BME280;1727;42.624;23.406;2023-01-29T00:57:32;94988.00;;;1.23;100.00
3428;BME280;1727;42.624;23.406;2023-01-29T00:59:59;94992.19;;;1.26;100.00
3428;BME280;1727;42.624;23.406;2023-01-29T01:02:26;94981.63;;;1.30;100.00
3428;BME280;1727;42.624;23.406;2023-01-29T01:05:14;94974.09;;;1.26;100.00
3428;BME280;1727;42.624;23.406;2023-01-29T01:07:43;94982.84;;;1.23;100.00
3428;BME280;1727;42.624;23.406;2023-01-29T01:10:13;94988.69;;;1.27;100.00
3428;BME280;1727;42.624;23.406;2023-01-29T01:12:50;94992.34;;;1.22;100.00
3428;BME280;1727;42.624;23.406;2023-01-29T01:15:19;94986.47;;;1.19;100.00
3428;BME280;1727;42.624;23.406;2023-01-29T01:17:46;94978.06;;;1.14;100.00
3428;BME280;1727;42.624;23.406;2023-01-29T01:20:15;94984.81;;;1.18;100.00
3428;BME280;1727;42.624;23.406;2023-01-29T01:22:42;94988.16;;;1.20;100.00
3428;BME280;1727;42.624;23.406;2023-01-29T01:25:08;94974.59;;;1.15;100.00
3428;BME280;1727;42.624;23.406;2023-01-29T01:27:35;94978.28;;;1.09;100.00
3428;BME280;1727;42.624;23.406;2023-01-29T01:30:08;94979.97;;;1.10;100.00
3428;BME280;1727;42.624;23.406;2023-01-29T01:32:36;94974.66;;;1.13;100.00
3428;BME280;1727;42.624;23.406;2023-01-29T01:35:03;94982.41;;;1.13;100.00
3428;BME280;1727;42.624;23.406;2023-01-29T01:37:32;94973.47;;;1.20;100.00
3428;BME280;1727;42.624;23.406;2023-01-29T01:40:02;94982.00;;;1.22;100.00
3428;BME280;1727;42.624;23.406;2023-01-29T01:42:30;94979.72;;;1.16;100.00
3428;BME280;1727;42.624;23.406;2023-01-29T01:44:58;94974.38;;;1.19;100.00
3428;BME280;1727;42.624;23.406;2023-01-29T01:47:34;94978.34;;;1.27;100.00
3428;BME280;1727;42.624;23.406;2023-01-29T01:50:07;94990.66;;;1.21;100.00
3428;BME280;1727;42.624;23.406;2023-01-29T01:52:40;94992.47;;;1.19;100.00
3428;BME280;1727;42.624;23.406;2023-01-29T01:55:12;94997.66;;;1.19;100.00
3428;BME280;1727;42.624;23.406;2023-01-29T01:57:42;94987.31;;;1.19;100.00
3428;BME280;1727;42.624;23.406;2023-01-29T02:00:14;94994.84;;;1.24;100.00
3428;BME280;1727;42.624;23.406;2023-01-29T02:02:45;94994.38;;;1.16;100.00
3428;BME280;1727;42.624;23.406;2023-01-29T02:05:31;94998.75;;;1.14;100.00
3428;BME280;1727;42.624;23.406;2023-01-29T02:08:19;94997.44;;;1.24;100.00
3428;BME280;1727;42.624;23.406;2023-01-29T02:11:07;94995.69;;;1.24;100.00
3428;BME280;1727;42.624;23.406;2023-01-29T02:13:34;94993.41;;;1.18;100.00
3428;BME280;1727;42.624;23.406;2023-01-29T02:16:01;94993.94;;;1.25;100.00
3428;BME280;1727;42.624;23.406;2023-01-29T02:18:28;95001.06;;;1.20;100.00
3428;BME280;1727;42.624;23.406;2023-01-29T02:21:16;95000.31;;;1.18;100.00
3428;BME280;1727;42.624;23.406;2023-01-29T02:27:06;94988.56;;;1.11;100.00
3428;BME280;1727;42.624;23.406;2023-01-29T02:29:46;95001.69;;;1.06;100.00
3428;BME280;1727;42.624;23.406;2023-01-29T02:32:23;95005.81;;;1.10;100.00
3428;BME280;1727;42.624;23.406;2023-01-29T02:34:59;95003.22;;;1.10;100.00
3428;BME280;1727;42.624;23.406;2023-01-29T02:37:51;95011.97;;;1.08;100.00
3428;BME280;1727;42.624;23.406;2023-01-29T02:40:27;95009.22;;;1.11;100.00
3428;BME280;1727;42.624;23.406;2023-01-29T02:43:02;95019.41;;;1.14;100.00
3428;BME280;1727;42.624;23.406;2023-01-29T02:45:41;95018.66;;;1.12;100.00
3428;BME280;1727;42.624;23.406;2023-01-29T02:48:17;95021.16;;;1.13;100.00
3428;BME280;1727;42.624;23.406;2023-01-29T02:50:48;95026.22;;;1.16;100.00
3428;BME280;1727;42.624;23.406;2023-01-29T02:53:22;95031.44;;;1.15;100.00
3428;BME280;1727;42.624;23.406;2023-01-29T02:55:55;95021.94;;;1.15;100.00
3428;BME280;1727;42.624;23.406;2023-01-29T02:58:29;95022.22;;;1.28;100.00
3428;BME280;1727;42.624;23.406;2023-01-29T03:01:01;95016.06;;;1.31;100.00
3428;BME280;1727;42.624;23.406;2023-01-29T03:03:33;95028.38;;;1.26;100.00
3428;BME280;1727;42.624;23.406;2023-01-29T03:06:05;95028.38;;;1.26;100.00
3428;BME280;1727;42.624;23.406;2023-01-29T03:08:36;95026.63;;;1.26;100.00
3428;BME280;1727;42.624;23.406;2023-01-29T03:11:11;95021.94;;;1.15;100.00
3428;BME280;1727;42.624;23.406;2023-01-29T03:13:44;95032.00;;;1.21;100.00
3428;BME280;1727;42.624;23.406;2023-01-29T03:16:19;95025.88;;;1.24;100.00
3428;BME280;1727;42.624;23.406;2023-01-29T03:18:50;95026.63;;;1.26;100.00
3428;BME280;1727;42.624;23.406;2023-01-29T03:21:23;95027.53;;;1.25;100.00
3428;BME280;1727;42.624;23.406;2023-01-29T03:24:12;95031.56;;;1.31;100.00
3428;BME280;1727;42.624;23.406;2023-01-29T03:27:01;95034.22;;;1.29;100.00
3428;BME280;1727;42.624;23.406;2023-01-29T03:29:47;95033.88;;;1.37;100.00
3428;BME280;1727;42.624;23.406;2023-01-29T03:32:35;95035.25;;;1.44;100.00
3428;BME280;1727;42.624;23.406;2023-01-29T03:35:04;95027.63;;;1.41;100.00
3428;BME280;1727;42.624;23.406;2023-01-29T03:37:36;95035.31;;;1.42;100.00
3428;BME280;1727;42.624;23.406;2023-01-29T03:40:07;95034.38;;;1.45;100.00
3428;BME280;1727;42.624;23.406;2023-01-29T03:42:43;95037.22;;;1.39;100.00
3428;BME280;1727;42.624;23.406;2023-01-29T03:45:20;95040.41;;;1.44;100.00
3428;BME280;1727;42.624;23.406;2023-01-29T03:47:57;95033.88;;;1.37;100.00
3428;BME280;1727;42.624;23.406;2023-01-29T03:50:35;95037.28;;;1.37;100.00
3428;BME280;1727;42.624;23.406;2023-01-29T03:53:09;95039.63;;;1.24;100.00
3428;BME280;1727;42.624;23.406;2023-01-29T03:55:41;95040.03;;;1.15;100.00
3428;BME280;1727;42.624;23.406;2023-01-29T03:58:18;95039.16;;;1.16;100.00
3428;BME280;1727;42.624;23.406;2023-01-29T04:00:51;95044.31;;;1.16;100.00
3428;BME280;1727;42.624;23.406;2023-01-29T04:03:23;95038.50;;;1.11;100.00
3428;BME280;1727;42.624;23.406;2023-01-29T04:05:58;95041.78;;;1.15;100.00
3428;BME280;1727;42.624;23.406;2023-01-29T04:08:31;95040.81;;;1.17;100.00
3428;BME280;1727;42.624;23.406;2023-01-29T04:11:05;95046.00;;;1.17;100.00
3428;BME280;1727;42.624;23.406;2023-01-29T04:13:36;95041.38;;;1.24;100.00
3428;BME280;1727;42.624;23.406;2023-01-29T04:16:05;95042.34;;;1.21;100.00
3428;BME280;1727;42.624;23.406;2023-01-29T04:18:35;95047.53;;;1.21;100.00
3428;BME280;1727;42.624;23.406;2023-01-29T04:21:04;95050.88;;;1.23;100.00
3428;BME280;1727;42.624;23.406;2023-01-29T04:23:32;95054.75;;;1.32;100.00
3428;BME280;1727;42.624;23.406;2023-01-29T04:26:24;95056.59;;;1.30;100.00
3428;BME280;1727;42.624;23.406;2023-01-29T04:29:09;95054.38;;;1.22;100.00
3428;BME280;1727;42.624;23.406;2023-01-29T04:31:44;95057.56;;;1.28;100.00
3428;BME280;1727;42.624;23.406;2023-01-29T04:34:22;95052.41;;;1.28;100.00
3428;BME280;1727;42.624;23.406;2023-01-29T04:36:58;95054.69;;;1.34;100.00
3428;BME280;1727;42.624;23.406;2023-01-29T04:39:31;95053.31;;;1.27;100.00
3428;BME280;1727;42.624;23.406;2023-01-29T04:42:05;95056.25;;;1.19;100.00
3428;BME280;1727;42.624;23.406;2023-01-29T04:44:37;95058.41;;;1.09;100.00
3428;BME280;1727;42.624;23.406;2023-01-29T04:47:15;95056.66;;;1.10;100.00
3428;BME280;1727;42.624;23.406;2023-01-29T04:49:48;95057.16;;;1.18;100.00
3428;BME280;1727;42.624;23.406;2023-01-29T04:52:22;95057.22;;;1.16;100.00
3428;BME280;1727;42.624;23.406;2023-01-29T04:55:00;95063.25;;;1.17;100.00
3428;BME280;1727;42.624;23.406;2023-01-29T04:57:33;95053.94;;;1.13;100.00
3428;BME280;1727;42.624;23.406;2023-01-29T05:00:05;95063.25;;;1.17;100.00
3428;BME280;1727;42.624;23.406;2023-01-29T05:02:39;95070.00;;;1.19;100.00
3428;BME280;1727;42.624;23.406;2023-01-29T05:05:09;95070.56;;;1.26;100.00
3428;BME280;1727;42.624;23.406;2023-01-29T05:07:37;95069.09;;;1.20;100.00
3428;BME280;1727;42.624;23.406;2023-01-29T05:10:07;95057.56;;;1.09;100.00
3428;BME280;1727;42.624;23.406;2023-01-29T05:12:35;95074.13;;;1.23;100.00
3428;BME280;1727;42.624;23.406;2023-01-29T05:15:05;95073.06;;;1.28;100.00
3428;BME280;1727;42.624;23.406;2023-01-29T05:17:34;95072.25;;;1.27;100.00
3428;BME280;1727;42.624;23.406;2023-01-29T05:20:01;95067.06;;;1.27;100.00
3428;BME280;1727;42.624;23.406;2023-01-29T05:22:29;95073.28;;;1.23;100.00
3428;BME280;1727;42.624;23.406;2023-01-29T05:24:56;95077.34;;;1.29;100.00
3428;BME280;1727;42.624;23.406;2023-01-29T05:27:30;95080.53;;;1.34;100.00
3428;BME280;1727;42.624;23.406;2023-01-29T05:33:36;95091.38;;;1.42;100.00
3428;BME280;1727;42.624;23.406;2023-01-29T05:36:04;95092.19;;;1.42;100.00
3428;BME280;1727;42.624;23.406;2023-01-29T05:38:32;95088.09;;;1.38;100.00
3428;BME280;1727;42.624;23.406;2023-01-29T05:40:59;95088.16;;;1.37;100.00
3428;BME280;1727;42.624;23.406;2023-01-29T05:43:26;95094.44;;;1.31;100.00
3428;BME280;1727;42.624;23.406;2023-01-29T05:45:53;95096.63;;;1.21;100.00
3428;BME280;1727;42.624;23.406;2023-01-29T05:48:20;95104.69;;;1.14;100.00
3428;BME280;1727;42.624;23.406;2023-01-29T05:50:47;95089.13;;;1.15;100.00
3428;BME280;1727;42.624;23.406;2023-01-29T05:53:14;95095.03;;;1.19;100.00
3428;BME280;1727;42.624;23.406;2023-01-29T05:55:44;95101.28;;;1.13;100.00
3428;BME280;1727;42.624;23.406;2023-01-29T05:58:11;95104.44;;;1.20;100.00
3428;BME280;1727;42.624;23.406;2023-01-29T06:00:38;95105.00;;;1.27;100.00
3428;BME280;1727;42.624;23.406;2023-01-29T06:03:05;95102.19;;;1.31;100.00
3428;BME280;1727;42.624;23.406;2023-01-29T06:05:32;95107.66;;;1.25;100.00
3428;BME280;1727;42.624;23.406;2023-01-29T06:07:59;95114.44;;;1.28;100.00
3428;BME280;1727;42.624;23.406;2023-01-29T06:10:26;95115.34;;;1.27;100.00
3428;BME280;1727;42.624;23.406;2023-01-29T06:12:54;95122.34;;;1.24;100.00
3428;BME280;1727;42.624;23.406;2023-01-29T06:15:21;95131.19;;;1.19;100.00
3428;BME280;1727;42.624;23.406;2023-01-29T06:17:49;95125.31;;;3.11;100.00
3428;BME280;1727;42.624;23.406;2023-01-29T06:20:16;95127.94;;;5.54;100.00
3428;BME280;1727;42.624;23.406;2023-01-29T06:22:42;95132.00;;;5.73;100.00
3428;BME280;1727;42.624;23.406;2023-01-29T06:25:09;95154.25;;;4.91;92.61
3428;BME280;1727;42.624;23.406;2023-01-29T06:27:36;95145.22;;;4.39;90.97
3428;BME280;1727;42.624;23.406;2023-01-29T06:30:05;95158.97;;;3.93;92.93
3428;BME280;1727;42.624;23.406;2023-01-29T06:32:32;95162.69;;;3.40;93.62
3428;BME280;1727;42.624;23.406;2023-01-29T06:34:59;95162.56;;;2.93;95.26
3428;BME280;1727;42.624;23.406;2023-01-29T06:37:26;95158.38;;;2.73;96.84
3428;BME280;1727;42.624;23.406;2023-01-29T06:39:53;95160.41;;;2.49;98.79
3428;BME280;1727;42.624;23.406;2023-01-29T06:42:19;95159.94;;;2.41;99.77
3428;BME280;1727;42.624;23.406;2023-01-29T06:44:52;95158.25;;;2.23;100.00
3428;BME280;1727;42.624;23.406;2023-01-29T06:47:20;95163.94;;;2.12;100.00
3428;BME280;1727;42.624;23.406;2023-01-29T06:49:47;95166.13;;;2.03;100.00
3428;BME280;1727;42.624;23.406;2023-01-29T06:52:13;95164.09;;;1.91;100.00
3428;BME280;1727;42.624;23.406;2023-01-29T06:54:40;95169.75;;;1.99;100.00
3428;BME280;1727;42.624;23.406;2023-01-29T06:57:07;95167.25;;;1.97;100.00
3428;BME280;1727;42.624;23.406;2023-01-29T06:59:34;95166.28;;;1.81;100.00
3428;BME280;1727;42.624;23.406;2023-01-29T07:02:02;95165.84;;;1.71;100.00
3428;BME280;1727;42.624;23.406;2023-01-29T07:04:30;95167.06;;;1.64;100.00
3428;BME280;1727;42.624;23.406;2023-01-29T07:06:58;95173.91;;;1.65;100.00
3428;BME280;1727;42.624;23.406;2023-01-29T07:09:24;95173.75;;;1.68;100.00
3428;BME280;1727;42.624;23.406;2023-01-29T07:11:51;95171.06;;;1.52;100.00
3428;BME280;1727;42.624;23.406;2023-01-29T07:14:18;95174.94;;;1.42;100.00
3428;BME280;1727;42.624;23.406;2023-01-29T07:16:45;95170.50;;;1.46;100.00
3428;BME280;1727;42.624;23.406;2023-01-29T07:19:12;95174.00;;;1.45;100.00
3428;BME280;1727;42.624;23.406;2023-01-29T07:21:40;95170.59;;;1.43;100.00
3428;BME280;1727;42.624;23.406;2023-01-29T07:24:07;95173.06;;;1.46;100.00
3428;BME280;1727;42.624;23.406;2023-01-29T07:26:34;95180.03;;;1.44;100.00
3428;BME280;1727;42.624;23.406;2023-01-29T07:29:01;95190.19;;;1.48;100.00
3428;BME280;1727;42.624;23.406;2023-01-29T07:31:29;95180.41;;;1.55;100.00
3428;BME280;1727;42.624;23.406;2023-01-29T07:33:56;95186.41;;;1.55;100.00
3428;BME280;1727;42.624;23.406;2023-01-29T07:36:23;95194.09;;;1.57;100.00
3428;BME280;1727;42.624;23.406;2023-01-29T07:38:51;95194.44;;;1.68;100.00
3428;BME280;1727;42.624;23.406;2023-01-29T07:41:18;95190.47;;;1.61;100.00
3428;BME280;1727;42.624;23.406;2023-01-29T07:43:45;95190.41;;;1.63;100.00
3428;BME280;1727;42.624;23.406;2023-01-29T07:46:12;95202.34;;;1.65;100.00
3428;BME280;1727;42.624;23.406;2023-01-29T07:48:39;95183.47;;;1.63;100.00
3428;BME280;1727;42.624;23.406;2023-01-29T07:51:06;95197.03;;;1.68;100.00
3428;BME280;1727;42.624;23.406;2023-01-29T07:53:32;95190.47;;;1.61;100.00
3428;BME280;1727;42.624;23.406;2023-01-29T07:56:02;95193.97;;;1.60;100.00
3428;BME280;1727;42.624;23.406;2023-01-29T07:58:29;95201.78;;;1.59;100.00
3428;BME280;1727;42.624;23.406;2023-01-29T08:00:55;95200.53;;;1.67;100.00
3428;BME280;1727;42.624;23.406;2023-01-29T08:03:22;95203.75;;;1.72;100.00
3428;BME280;1727;42.624;23.406;2023-01-29T08:05:49;95212.41;;;1.71;100.00
3428;BME280;1727;42.624;23.406;2023-01-29T08:08:16;95212.56;;;1.68;100.00
3428;BME280;1727;42.624;23.406;2023-01-29T08:10:43;95211.31;;;1.77;100.00
3428;BME280;1727;42.624;23.406;2023-01-29T08:13:11;95212.03;;;1.80;100.00
3428;BME280;1727;42.624;23.406;2023-01-29T08:15:41;95213.66;;;2.00;100.00
3428;BME280;1727;42.624;23.406;2023-01-29T08:18:08;95210.13;;;2.03;100.00
3428;BME280;1727;42.624;23.406;2023-01-29T08:20:35;95225.06;;;2.15;100.00
3428;BME280;1727;42.624;23.406;2023-01-29T08:23:03;95219.53;;;2.23;100.00
3428;BME280;1727;42.624;23.406;2023-01-29T08:25:31;95222.81;;;2.26;100.00
3428;BME280;1727;42.624;23.406;2023-01-29T08:27:58;95217.56;;;2.28;100.00
3428;BME280;1727;42.624;23.406;2023-01-29T08:30:28;95223.56;;;2.28;100.00
3428;BME280;1727;42.624;23.406;2023-01-29T08:32:55;95226.81;;;2.33;100.00
3428;BME280;1727;42.624;23.406;2023-01-29T08:35:22;95224.41;;;2.29;100.00
3428;BME280;1727;42.624;23.406;2023-01-29T08:37:52;95232.69;;;2.18;100.00
3428;BME280;1727;42.624;23.406;2023-01-29T08:40:20;95231.31;;;2.11;100.00
3428;BME280;1727;42.624;23.406;2023-01-29T08:42:46;95233.59;;;2.17;100.00
3428;BME280;1727;42.624;23.406;2023-01-29T08:45:13;95232.84;;;2.15;100.00
3428;BME280;1727;42.624;23.406;2023-01-29T08:47:45;95227.41;;;2.74;100.00
3428;BME280;1727;42.624;23.406;2023-01-29T08:50:13;95232.78;;;2.53;100.00
3428;BME280;1727;42.624;23.406;2023-01-29T08:52:39;95234.44;;;2.54;100.00
3428;BME280;1727;42.624;23.406;2023-01-29T08:55:07;95242.91;;;2.40;100.00
3428;BME280;1727;42.624;23.406;2023-01-29T08:57:34;95253.41;;;2.37;100.00
3428;BME280;1727;42.624;23.406;2023-01-29T09:00:01;95254.66;;;2.28;100.00
3428;BME280;1727;42.624;23.406;2023-01-29T09:02:28;95253.81;;;2.28;100.00
3428;BME280;1727;42.624;23.406;2023-01-29T09:04:56;95259.75;;;2.30;100.00
3428;BME280;1727;42.624;23.406;2023-01-29T09:07:22;95252.97;;;2.27;100.00
3428;BME280;1727;42.624;23.406;2023-01-29T09:09:49;95258.44;;;2.21;100.00
3428;BME280;1727;42.624;23.406;2023-01-29T09:12:16;95253.47;;;2.16;100.00
3428;BME280;1727;42.624;23.406;2023-01-29T09:14:43;95253.78;;;2.10;100.00
3428;BME280;1727;42.624;23.406;2023-01-29T09:17:10;95251.41;;;2.06;100.00
3428;BME280;1727;42.624;23.406;2023-01-29T09:19:36;95252.31;;;2.05;100.00
3428;BME280;1727;42.624;23.406;2023-01-29T09:22:04;95251.41;;;2.06;100.00
3428;BME280;1727;42.624;23.406;2023-01-29T09:24:31;95248.81;;;2.06;100.00
3428;BME280;1727;42.624;23.406;2023-01-29T09:26:59;95247.19;;;2.03;100.00
3428;BME280;1727;42.624;23.406;2023-01-29T09:29:26;95243.56;;;1.89;100.00
3428;BME280;1727;42.624;23.406;2023-01-29T09:31:53;95252.22;;;1.88;100.00
3428;BME280;1727;42.624;23.406;2023-01-29T09:34:19;95234.09;;;1.88;100.00
3428;BME280;1727;42.624;23.406;2023-01-29T09:36:46;95244.75;;;1.81;100.00
3428;BME280;1727;42.624;23.406;2023-01-29T09:39:14;95247.97;;;1.86;100.00
3428;BME280;1727;42.624;23.406;2023-01-29T09:41:47;95234.94;;;1.88;100.00
3428;BME280;1727;42.624;23.406;2023-01-29T09:44:21;95241.25;;;1.82;100.00
3428;BME280;1727;42.624;23.406;2023-01-29T09:46:51;95240.41;;;1.82;100.00
3428;BME280;1727;42.624;23.406;2023-01-29T09:49:23;95235.38;;;1.79;100.00
3428;BME280;1727;42.624;23.406;2023-01-29T09:51:56;95233.84;;;1.75;100.00
3428;BME280;1727;42.624;23.406;2023-01-29T09:54:28;95239.28;;;1.88;100.00
3428;BME280;1727;42.624;23.406;2023-01-29T09:56:57;95223.63;;;1.91;100.00
3428;BME280;1727;42.624;23.406;2023-01-29T09:59:29;95227.66;;;1.96;100.00
3428;BME280;1727;42.624;23.406;2023-01-29T10:02:04;95223.47;;;1.94;100.00
3428;BME280;1727;42.624;23.406;2023-01-29T10:04:54;95225.03;;;1.79;100.00
3428;BME280;1727;42.624;23.406;2023-01-29T10:07:46;95230.28;;;1.77;100.00
3428;BME280;1727;42.624;23.406;2023-01-29T10:10:38;95212.72;;;1.84;100.00
3428;BME280;1727;42.624;23.406;2023-01-29T10:13:14;95222.00;;;1.88;100.00
3428;BME280;1727;42.624;23.406;2023-01-29T10:15:57;95217.75;;;1.87;100.00
3428;BME280;1727;42.624;23.406;2023-01-29T10:18:53;95221.88;;;1.91;100.00
3428;BME280;1727;42.624;23.406;2023-01-29T10:21:40;95212.66;;;1.85;100.00
3428;BME280;1727;42.624;23.406;2023-01-29T10:24:21;95212.94;;;1.79;100.00
3428;BME280;1727;42.624;23.406;2023-01-29T10:26:51;95201.38;;;1.68;100.00
3428;BME280;1727;42.624;23.406;2023-01-29T10:29:19;95208.44;;;1.64;100.00
3428;BME280;1727;42.624;23.406;2023-01-29T10:31:51;95211.56;;;1.71;100.00
3428;BME280;1727;42.624;23.406;2023-01-29T10:34:26;95210.34;;;1.79;100.00
3428;BME280;1727;42.624;23.406;2023-01-29T10:36:54;95200.75;;;1.81;100.00
3428;BME280;1727;42.624;23.406;2023-01-29T10:39:22;95199.09;;;1.80;100.00
3428;BME280;1727;42.624;23.406;2023-01-29T10:42:00;95196.44;;;1.82;100.00
3428;BME280;1727;42.624;23.406;2023-01-29T10:44:39;95202.84;;;1.73;100.00
3428;BME280;1727;42.624;23.406;2023-01-29T10:47:27;95194.06;;;1.77;100.00
3428;BME280;1727;42.624;23.406;2023-01-29T10:50:11;95190.50;;;1.80;100.00
3428;BME280;1727;42.624;23.406;2023-01-29T10:52:53;95187.25;;;1.94;100.00
3428;BME280;1727;42.624;23.406;2023-01-29T10:55:33;95195.78;;;1.96;100.00
3428;BME280;1727;42.624;23.406;2023-01-29T10:58:10;95184.88;;;1.89;100.00
3428;BME280;1727;42.624;23.406;2023-01-29T11:00:40;95185.88;;;1.86;100.00
3428;BME280;1727;42.624;23.406;2023-01-29T11:03:14;95182.03;;;1.76;100.00
3428;BME280;1727;42.624;23.406;2023-01-29T11:05:46;95187.00;;;1.81;100.00
3428;BME280;1727;42.624;23.406;2023-01-29T11:08:19;95187.06;;;1.79;100.00
3428;BME280;1727;42.624;23.406;2023-01-29T11:10:53;95170.97;;;1.73;100.00
3428;BME280;1727;42.624;23.406;2023-01-29T11:13:30;95175.88;;;1.79;100.00
3428;BME280;1727;42.624;23.406;2023-01-29T11:15:58;95177.78;;;1.75;100.00
3428;BME280;1727;42.624;23.406;2023-01-29T11:18:24;95172.44;;;1.78;100.00
3428;BME280;1727;42.624;23.406;2023-01-29T11:21:00;95172.31;;;1.81;100.00
3428;BME280;1727;42.624;23.406;2023-01-29T11:23:29;95173.28;;;1.79;100.00
3428;BME280;1727;42.624;23.406;2023-01-29T11:25:58;95170.00;;;1.75;100.00
3428;BME280;1727;42.624;23.406;2023-01-29T11:28:37;95168.13;;;1.79;100.00
3428;BME280;1727;42.624;23.406;2023-01-29T11:31:15;95164.47;;;1.83;100.00
3428;BME280;1727;42.624;23.406;2023-01-29T11:33:43;95169.06;;;1.95;100.00
3428;BME280;1727;42.624;23.406;2023-01-29T11:36:20;95166.13;;;2.03;100.00
3428;BME280;1727;42.624;23.406;2023-01-29T11:39:08;95157.25;;;2.08;100.00
3428;BME280;1727;42.624;23.406;2023-01-29T11:41:42;95150.94;;;2.14;100.00
3428;BME280;1727;42.624;23.406;2023-01-29T11:44:18;95144.00;;;2.14;100.00
3428;BME280;1727;42.624;23.406;2023-01-29T11:46:46;95145.91;;;2.11;100.00
3428;BME280;1727;42.624;23.406;2023-01-29T11:49:22;95137.06;;;2.15;100.00
3428;BME280;1727;42.624;23.406;2023-01-29T11:51:52;95137.69;;;2.20;100.00
3428;BME280;1727;42.624;23.406;2023-01-29T11:54:26;95140.88;;;2.25;100.00
3428;BME280;1727;42.624;23.406;2023-01-29T11:56:54;95136.63;;;2.24;100.00
3428;BME280;1727;42.624;23.406;2023-01-29T11:59:33;95134.44;;;2.34;100.00
3428;BME280;1727;42.624;23.406;2023-01-29T12:02:18;95136.34;;;2.47;99.95
3428;BME280;1727;42.624;23.406;2023-01-29T12:04:47;95141.91;;;2.57;99.90
3428;BME280;1727;42.624;23.406;2023-01-29T12:07:15;95137.56;;;2.58;99.69
3428;BME280;1727;42.624;23.406;2023-01-29T12:09:48;95136.28;;;2.66;99.64
3428;BME280;1727;42.624;23.406;2023-01-29T12:12:26;95140.22;;;2.73;100.00
3428;BME280;1727;42.624;23.406;2023-01-29T12:15:15;95134.97;;;2.75;99.68
3428;BME280;1727;42.624;23.406;2023-01-29T12:17:46;95134.19;;;2.90;100.00
3428;BME280;1727;42.624;23.406;2023-01-29T12:20:22;95134.13;;;2.92;98.82
3428;BME280;1727;42.624;23.406;2023-01-29T12:22:57;95142.09;;;2.87;96.92
3428;BME280;1727;42.624;23.406;2023-01-29T12:25:35;95132.91;;;2.82;97.57
3428;BME280;1727;42.624;23.406;2023-01-29T12:28:09;95136.31;;;2.82;98.08
3428;BME280;1727;42.624;23.406;2023-01-29T12:30:47;95137.56;;;2.92;99.68
3428;BME280;1727;42.624;23.406;2023-01-29T12:33:23;95140.91;;;2.94;98.48
3428;BME280;1727;42.624;23.406;2023-01-29T12:35:57;95147.53;;;3.00;99.50
3428;BME280;1727;42.624;23.406;2023-01-29T12:38:27;95146.75;;;2.98;98.87
3428;BME280;1727;42.624;23.406;2023-01-29T12:40:57;95147.84;;;2.94;97.91
3428;BME280;1727;42.624;23.406;2023-01-29T12:43:30;95146.09;;;2.94;97.57
3428;BME280;1727;42.624;23.406;2023-01-29T12:46:01;95151.78;;;3.01;97.61
3428;BME280;1727;42.624;23.406;2023-01-29T12:48:31;95145.16;;;2.95;97.21
3428;BME280;1727;42.624;23.406;2023-01-29T12:51:05;95142.19;;;2.86;97.09
3428;BME280;1727;42.624;23.406;2023-01-29T12:53:36;95143.78;;;2.88;97.10
3428;BME280;1727;42.624;23.406;2023-01-29T12:56:09;95145.53;;;2.88;96.54
3428;BME280;1727;42.624;23.406;2023-01-29T12:58:42;95146.00;;;2.78;96.95
3428;BME280;1727;42.624;23.406;2023-01-29T13:01:14;95139.31;;;2.74;98.40
3428;BME280;1727;42.624;23.406;2023-01-29T13:03:47;95148.38;;;2.66;97.62
3428;BME280;1727;42.624;23.406;2023-01-29T13:06:19;95149.31;;;2.65;97.95
3428;BME280;1727;42.624;23.406;2023-01-29T13:08:50;95142.44;;;2.64;98.75
3428;BME280;1727;42.624;23.406;2023-01-29T13:11:23;95141.28;;;2.52;97.61
3428;BME280;1727;42.624;23.406;2023-01-29T13:13:53;95129.31;;;3.50;100.00
3428;BME280;1727;42.624;23.406;2023-01-29T13:16:25;95144.34;;;3.28;100.00
3428;BME280;1727;42.624;23.406;2023-01-29T13:18:55;95136.06;;;3.04;97.40
3428;BME280;1727;42.624;23.406;2023-01-29T13:21:25;95140.75;;;2.97;96.66
3428;BME280;1727;42.624;23.406;2023-01-29T13:23:55;95137.00;;;2.86;96.67
3428;BME280;1727;42.624;23.406;2023-01-29T13:26:23;95141.75;;;2.77;96.40
3428;BME280;1727;42.624;23.406;2023-01-29T13:28:51;95147.28;;;2.87;97.12
3428;BME280;1727;42.624;23.406;2023-01-29T13:31:31;95142.75;;;2.92;96.23
3428;BME280;1727;42.624;23.406;2023-01-29T13:34:11;95148.09;;;2.89;96.58
3428;BME280;1727;42.624;23.406;2023-01-29T13:36:42;95150.94;;;3.00;97.49
3428;BME280;1727;42.624;23.406;2023-01-29T13:39:19;95155.13;;;3.03;96.50
3428;BME280;1727;42.624;23.406;2023-01-29T13:41:50;95156.38;;;2.96;97.44